sensor_id;sensor_type;location;lat;lon;timestamp;pressure;altitude;pressure_sealevel;temperature;humidity
9187;BME280;7273;48.902;9.410;2022-08-19T00:01:37;97543.19;;;21.56;57.78
9187;BME280;7273;48.902;9.410;2022-08-19T00:04:07;97541.59;;;21.55;58.00
9187;BME280;7273;48.902;9.410;2022-08-19T00:06:34;97538.41;;;21.53;57.88
9187;BME280;7273;48.902;9.410;2022-08-19T00:09:00;97541.59;;;21.55;57.74
9187;BME280;7273;48.902;9.410;2022-08-19T00:11:26;97545.06;;;21.52;57.86
9187;BME280;7273;48.902;9.410;2022-08-19T00:13:54;97538.03;;;21.54;57.70
9187;BME280;7273;48.902;9.410;2022-08-19T00:16:20;97543.13;;;21.52;58.04
9187;BME280;7273;48.902;9.410;2022-08-19T00:18:47;97549.03;;;21.54;57.94
9187;BME280;7273;48.902;9.410;2022-08-19T00:21:12;97545.00;;;21.48;58.05
9187;BME280;7273;48.902;9.410;2022-08-19T00:23:38;97546.56;;;21.49;58.11
9187;BME280;7273;48.902;9.410;2022-08-19T00:26:04;97551.75;;;21.51;58.20
9187;BME280;7273;48.902;9.410;2022-08-19T00:28:30;97546.44;;;21.42;58.33
9187;BME280;7273;48.902;9.410;2022-08-19T00:30:56;97547.22;;;21.43;58.24
9187;BME280;7273;48.902;9.410;2022-08-19T00:33:21;97551.94;;;21.42;58.38
9187;BME280;7273;48.902;9.410;2022-08-19T00:35:47;97551.59;;;21.44;57.92
9187;BME280;7273;48.902;9.410;2022-08-19T00:38:13;97546.00;;;21.40;58.45
9187;BME280;7273;48.902;9.410;2022-08-19T00:40:39;97540.03;;;21.38;58.60
9187;BME280;7273;48.902;9.410;2022-08-19T00:43:11;97534.19;;;21.40;59.07
9187;BME280;7273;48.902;9.410;2022-08-19T00:45:39;97524.69;;;21.37;58.54
9187;BME280;7273;48.902;9.410;2022-08-19T00:48:07;97528.25;;;21.38;58.52
9187;BME280;7273;48.902;9.410;2022-08-19T00:50:33;97532.97;;;21.37;58.54
9187;BME280;7273;48.902;9.410;2022-08-19T00:53:00;97538.47;;;21.37;58.56
9187;BME280;7273;48.902;9.410;2022-08-19T00:55:31;97532.97;;;21.37;58.45
9187;BME280;7273;48.902;9.410;2022-08-19T00:58:07;97532.50;;;21.35;59.07
9187;BME280;7273;48.902;9.410;2022-08-19T01:00:35;97538.00;;;21.35;58.59
9187;BME280;7273;48.902;9.410;2022-08-19T01:03:07;97538.81;;;21.36;58.79
9187;BME280;7273;48.902;9.410;2022-08-19T01:05:34;97541.50;;;21.32;58.69
9187;BME280;7273;48.902;9.410;2022-08-19T01:08:02;97534.72;;;21.29;58.76
9187;BME280;7273;48.902;9.410;2022-08-19T01:10:32;97547.00;;;21.32;58.82
9187;BME280;7273;48.902;9.410;2022-08-19T01:13:01;97542.56;;;21.27;58.77
9187;BME280;7273;48.902;9.410;2022-08-19T01:15:30;97542.22;;;21.29;61.78
9187;BME280;7273;48.902;9.410;2022-08-19T01:17:57;97546.81;;;21.25;58.65
9187;BME280;7273;48.902;9.410;2022-08-19T01:20:25;97542.94;;;21.26;58.58
9187;BME280;7273;48.902;9.410;2022-08-19T01:22:54;97545.69;;;21.26;58.87
9187;BME280;7273;48.902;9.410;2022-08-19T01:25:24;97539.81;;;21.27;58.70
9187;BME280;7273;48.902;9.410;2022-08-19T01:27:52;97531.47;;;21.24;58.86
9187;BME280;7273;48.902;9.410;2022-08-19T01:30:25;97531.97;;;21.29;58.81
9187;BME280;7273;48.902;9.410;2022-08-19T01:32:52;97536.25;;;21.27;58.91
9187;BME280;7273;48.902;9.410;2022-08-19T01:35:20;97534.59;;;21.22;58.99
9187;BME280;7273;48.902;9.410;2022-08-19T01:37:55;97535.81;;;21.25;59.30
9187;BME280;7273;48.902;9.410;2022-08-19T01:40:24;97526.06;;;21.27;58.34
9187;BME280;7273;48.902;9.410;2022-08-19T01:42:50;97532.69;;;21.26;58.82
9187;BME280;7273;48.902;9.410;2022-08-19T01:45:18;97522.78;;;21.22;58.94
9187;BME280;7273;48.902;9.410;2022-08-19T01:47:43;97535.31;;;21.19;59.07
9187;BME280;7273;48.902;9.410;2022-08-19T01:50:10;97532.13;;;21.17;59.00
9187;BME280;7273;48.902;9.410;2022-08-19T01:52:37;97541.94;;;21.18;59.08
9187;BME280;7273;48.902;9.410;2022-08-19T01:55:06;97534.78;;;21.14;59.30
9187;BME280;7273;48.902;9.410;2022-08-19T01:57:32;97534.69;;;21.10;59.39
9187;BME280;7273;48.902;9.410;2022-08-19T01:59:58;97529.19;;;21.10;59.18
9187;BME280;7273;48.902;9.410;2022-08-19T02:02:24;97530.72;;;21.08;59.37
9187;BME280;7273;48.902;9.410;2022-08-19T02:04:50;97529.81;;;21.04;59.48
9187;BME280;7273;48.902;9.410;2022-08-19T02:07:19;97523.88;;;21.02;59.83
9187;BME280;7273;48.902;9.410;2022-08-19T02:09:45;97526.53;;;20.98;59.74
9187;BME280;7273;48.902;9.410;2022-08-19T02:12:11;97542.72;;;21.00;59.73
9187;BME280;7273;48.902;9.410;2022-08-19T02:14:36;97538.78;;;21.01;59.69
9187;BME280;7273;48.902;9.410;2022-08-19T02:17:02;97535.59;;;20.99;59.67
9187;BME280;7273;48.902;9.410;2022-08-19T02:19:28;97528.97;;;21.00;59.83
9187;BME280;7273;48.902;9.410;2022-08-19T02:21:53;97532.84;;;20.99;59.84
9187;BME280;7273;48.902;9.410;2022-08-19T02:24:19;97533.53;;;20.96;59.68
9187;BME280;7273;48.902;9.410;2022-08-19T02:26:44;97542.50;;;20.93;59.96
9187;BME280;7273;48.902;9.410;2022-08-19T02:29:10;97551.97;;;20.95;59.92
9187;BME280;7273;48.902;9.410;2022-08-19T02:31:35;97555.06;;;20.94;60.05
9187;BME280;7273;48.902;9.410;2022-08-19T02:34:01;97553.50;;;20.93;59.94
9187;BME280;7273;48.902;9.410;2022-08-19T02:36:27;97557.38;;;20.92;59.79
9187;BME280;7273;48.902;9.410;2022-08-19T02:38:53;97552.25;;;20.90;59.91
9187;BME280;7273;48.902;9.410;2022-08-19T02:41:24;97546.75;;;20.90;60.14
9187;BME280;7273;48.902;9.410;2022-08-19T02:43:50;97532.63;;;20.92;60.07
9187;BME280;7273;48.902;9.410;2022-08-19T02:46:22;97539.66;;;20.89;60.46
9187;BME280;7273;48.902;9.410;2022-08-19T02:48:52;97532.91;;;20.87;60.55
9187;BME280;7273;48.902;9.410;2022-08-19T02:51:25;97537.19;;;20.84;60.53
9187;BME280;7273;48.902;9.410;2022-08-19T02:53:51;97530.88;;;20.84;60.36
9187;BME280;7273;48.902;9.410;2022-08-19T02:56:17;97537.53;;;20.83;60.47
9187;BME280;7273;48.902;9.410;2022-08-19T02:58:43;97530.38;;;20.78;60.63
9187;BME280;7273;48.902;9.410;2022-08-19T03:01:10;97524.41;;;20.76;60.51
9187;BME280;7273;48.902;9.410;2022-08-19T03:03:36;97517.25;;;20.72;60.73
9187;BME280;7273;48.902;9.410;2022-08-19T03:06:14;97525.13;;;20.73;61.30
9187;BME280;7273;48.902;9.410;2022-08-19T03:08:42;97528.50;;;20.67;60.88
9187;BME280;7273;48.902;9.410;2022-08-19T03:11:25;97533.28;;;20.70;61.14
9187;BME280;7273;48.902;9.410;2022-08-19T03:13:50;97534.44;;;20.69;60.85
9187;BME280;7273;48.902;9.410;2022-08-19T03:16:17;97525.31;;;20.65;61.07
9187;BME280;7273;48.902;9.410;2022-08-19T03:18:44;97530.69;;;20.61;61.04
9187;BME280;7273;48.902;9.410;2022-08-19T03:21:09;97530.81;;;20.65;60.92
9187;BME280;7273;48.902;9.410;2022-08-19T03:23:39;97536.09;;;20.58;61.18
9187;BME280;7273;48.902;9.410;2022-08-19T03:26:06;97539.31;;;20.60;60.99
9187;BME280;7273;48.902;9.410;2022-08-19T03:28:32;97548.25;;;20.57;61.13
9187;BME280;7273;48.902;9.410;2022-08-19T03:31:03;97547.19;;;20.61;61.37
9187;BME280;7273;48.902;9.410;2022-08-19T03:33:30;97554.91;;;20.56;61.18
9187;BME280;7273;48.902;9.410;2022-08-19T03:36:04;97551.00;;;20.57;61.55
9187;BME280;7273;48.902;9.410;2022-08-19T03:38:30;97547.09;;;20.58;61.22
9187;BME280;7273;48.902;9.410;2022-08-19T03:40:57;97542.22;;;20.51;61.33
9187;BME280;7273;48.902;9.410;2022-08-19T03:43:23;97548.53;;;20.52;61.56
9187;BME280;7273;48.902;9.410;2022-08-19T03:45:48;97552.06;;;20.52;61.31
9187;BME280;7273;48.902;9.410;2022-08-19T03:48:14;97546.94;;;20.51;61.38
9187;BME280;7273;48.902;9.410;2022-08-19T03:50:41;97546.94;;;20.51;61.54
9187;BME280;7273;48.902;9.410;2022-08-19T03:53:07;97548.06;;;20.50;61.43
9187;BME280;7273;48.902;9.410;2022-08-19T03:55:39;97540.19;;;20.48;61.50
9187;BME280;7273;48.902;9.410;2022-08-19T03:58:04;97539.31;;;20.44;61.58
9187;BME280;7273;48.902;9.410;2022-08-19T04:00:31;97541.25;;;20.44;61.63
9187;BME280;7273;48.902;9.410;2022-08-19T04:02:58;97543.19;;;20.43;61.69
9187;BME280;7273;48.902;9.410;2022-08-19T04:05:24;97549.84;;;20.42;61.64
9187;BME280;7273;48.902;9.410;2022-08-19T04:07:49;97545.47;;;20.41;61.81
9187;BME280;7273;48.902;9.410;2022-08-19T04:10:14;97546.66;;;20.40;61.82
9187;BME280;7273;48.902;9.410;2022-08-19T04:12:40;97547.47;;;20.41;61.77
9187;BME280;7273;48.902;9.410;2022-08-19T04:15:06;97539.22;;;20.41;61.56
9187;BME280;7273;48.902;9.410;2022-08-19T04:17:33;97540.34;;;20.40;61.87
9187;BME280;7273;48.902;9.410;2022-08-19T04:19:59;97532.56;;;20.42;61.69
9187;BME280;7273;48.902;9.410;2022-08-19T04:22:24;97529.81;;;20.42;61.99
9187;BME280;7273;48.902;9.410;2022-08-19T04:24:50;97541.84;;;20.37;61.94
9187;BME280;7273;48.902;9.410;2022-08-19T04:27:15;97537.94;;;20.38;61.80
9187;BME280;7273;48.902;9.410;2022-08-19T04:29:41;97532.38;;;20.35;61.94
9187;BME280;7273;48.902;9.410;2022-08-19T04:32:07;97540.59;;;20.35;62.09
9187;BME280;7273;48.902;9.410;2022-08-19T04:34:32;97538.22;;;20.33;62.08
9187;BME280;7273;48.902;9.410;2022-08-19T04:36:58;97524.38;;;20.30;62.04
9187;BME280;7273;48.902;9.410;2022-08-19T04:39:27;97529.19;;;20.33;62.06
9187;BME280;7273;48.902;9.410;2022-08-19T04:42:12;97534.22;;;20.31;62.09
9187;BME280;7273;48.902;9.410;2022-08-19T04:44:57;97541.75;;;20.34;61.99
9187;BME280;7273;48.902;9.410;2022-08-19T04:47:23;97536.16;;;20.30;62.05
9187;BME280;7273;48.902;9.410;2022-08-19T04:49:49;97541.66;;;20.30;62.17
9187;BME280;7273;48.902;9.410;2022-08-19T04:52:14;97543.59;;;20.30;62.23
9187;BME280;7273;48.902;9.410;2022-08-19T04:54:40;97534.59;;;20.29;62.14
9187;BME280;7273;48.902;9.410;2022-08-19T04:57:07;97540.09;;;20.29;62.09
9187;BME280;7273;48.902;9.410;2022-08-19T04:59:35;97539.28;;;20.29;62.13
9187;BME280;7273;48.902;9.410;2022-08-19T05:02:03;97544.75;;;20.29;62.27
9187;BME280;7273;48.902;9.410;2022-08-19T05:04:28;97541.66;;;20.30;62.12
9187;BME280;7273;48.902;9.410;2022-08-19T05:06:56;97543.53;;;20.26;62.30
9187;BME280;7273;48.902;9.410;2022-08-19T05:09:22;97549.44;;;20.28;62.26
9187;BME280;7273;48.902;9.410;2022-08-19T05:11:47;97560.78;;;20.27;62.36
9187;BME280;7273;48.902;9.410;2022-08-19T05:14:13;97567.09;;;20.27;62.40
9187;BME280;7273;48.902;9.410;2022-08-19T05:16:39;97576.56;;;20.30;62.35
9187;BME280;7273;48.902;9.410;2022-08-19T05:19:04;97583.56;;;20.27;62.50
9187;BME280;7273;48.902;9.410;2022-08-19T05:21:49;97585.16;;;20.28;62.51
9187;BME280;7273;48.902;9.410;2022-08-19T05:24:33;97593.50;;;20.32;62.35
9187;BME280;7273;48.902;9.410;2022-08-19T05:26:59;97599.34;;;20.30;62.41
9187;BME280;7273;48.902;9.410;2022-08-19T05:29:26;97608.03;;;20.32;62.53
9187;BME280;7273;48.902;9.410;2022-08-19T05:31:53;97612.72;;;20.32;62.44
9187;BME280;7273;48.902;9.410;2022-08-19T05:34:21;97619.47;;;20.34;62.49
9187;BME280;7273;48.902;9.410;2022-08-19T05:36:50;97627.72;;;20.34;62.42
9187;BME280;7273;48.902;9.410;2022-08-19T05:39:18;97630.47;;;20.34;62.69
9187;BME280;7273;48.902;9.410;2022-08-19T05:41:46;97631.94;;;20.32;62.74
9187;BME280;7273;48.902;9.410;2022-08-19T05:44:12;97634.34;;;20.33;62.67
9187;BME280;7273;48.902;9.410;2022-08-19T05:46:39;97646.94;;;20.34;62.55
9187;BME280;7273;48.902;9.410;2022-08-19T05:49:05;97647.38;;;20.36;62.72
9187;BME280;7273;48.902;9.410;2022-08-19T05:51:32;97646.25;;;20.37;62.60
9187;BME280;7273;48.902;9.410;2022-08-19T05:53:59;97644.75;;;20.40;62.74
9187;BME280;7273;48.902;9.410;2022-08-19T05:56:25;97646.59;;;20.36;62.95
9187;BME280;7273;48.902;9.410;2022-08-19T05:58:51;97647.84;;;20.38;62.87
9187;BME280;7273;48.902;9.410;2022-08-19T06:01:17;97645.19;;;20.42;62.76
9187;BME280;7273;48.902;9.410;2022-08-19T06:03:44;97652.97;;;20.40;62.87
9187;BME280;7273;48.902;9.410;2022-08-19T06:06:12;97654.13;;;20.39;62.89
9187;BME280;7273;48.902;9.410;2022-08-19T06:08:38;97650.69;;;20.42;62.69
9187;BME280;7273;48.902;9.410;2022-08-19T06:11:24;97647.94;;;20.42;63.98
9187;BME280;7273;48.902;9.410;2022-08-19T06:13:52;97645.53;;;20.40;63.03
9187;BME280;7273;48.902;9.410;2022-08-19T06:16:21;97643.25;;;20.42;62.84
9187;BME280;7273;48.902;9.410;2022-08-19T06:18:49;97646.34;;;20.41;62.81
9187;BME280;7273;48.902;9.410;2022-08-19T06:21:17;97642.44;;;20.42;62.83
9187;BME280;7273;48.902;9.410;2022-08-19T06:23:44;97640.97;;;20.44;62.83
9187;BME280;7273;48.902;9.410;2022-08-19T06:26:14;97643.34;;;20.46;63.09
9187;BME280;7273;48.902;9.410;2022-08-19T06:28:39;97642.91;;;20.44;62.91
9187;BME280;7273;48.902;9.410;2022-08-19T06:31:11;97640.75;;;20.37;63.00
9187;BME280;7273;48.902;9.410;2022-08-19T06:33:39;97644.03;;;20.43;63.05
9187;BME280;7273;48.902;9.410;2022-08-19T06:36:05;97640.59;;;20.46;62.94
9187;BME280;7273;48.902;9.410;2022-08-19T06:38:31;97647.94;;;20.42;63.22
9187;BME280;7273;48.902;9.410;2022-08-19T06:41:03;97649.53;;;20.43;63.24
9187;BME280;7273;48.902;9.410;2022-08-19T06:43:29;97649.53;;;20.43;63.33
9187;BME280;7273;48.902;9.410;2022-08-19T06:45:54;97654.25;;;20.42;63.39
9187;BME280;7273;48.902;9.410;2022-08-19T06:48:19;97643.72;;;20.44;63.25
9187;BME280;7273;48.902;9.410;2022-08-19T06:50:45;97648.16;;;20.49;63.37
9187;BME280;7273;48.902;9.410;2022-08-19T06:53:10;97644.34;;;20.53;63.30
9187;BME280;7273;48.902;9.410;2022-08-19T06:55:36;97639.41;;;20.59;63.08
9187;BME280;7273;48.902;9.410;2022-08-19T06:58:03;97643.84;;;20.63;62.88
9187;BME280;7273;48.902;9.410;2022-08-19T07:00:29;97648.25;;;20.68;63.18
9187;BME280;7273;48.902;9.410;2022-08-19T07:02:54;97651.56;;;20.73;62.87
9187;BME280;7273;48.902;9.410;2022-08-19T07:05:20;97652.34;;;20.74;63.07
9187;BME280;7273;48.902;9.410;2022-08-19T07:07:46;97656.34;;;20.76;63.08
9187;BME280;7273;48.902;9.410;2022-08-19T07:10:11;97666.75;;;20.83;62.95
9187;BME280;7273;48.902;9.410;2022-08-19T07:12:37;97665.16;;;20.82;63.12
9187;BME280;7273;48.902;9.410;2022-08-19T07:15:04;97660.78;;;20.81;63.14
9187;BME280;7273;48.902;9.410;2022-08-19T07:17:30;97666.75;;;20.83;63.00
9187;BME280;7273;48.902;9.410;2022-08-19T07:19:56;97665.94;;;20.82;63.39
9187;BME280;7273;48.902;9.410;2022-08-19T07:22:22;97668.69;;;20.82;63.51
9187;BME280;7273;48.902;9.410;2022-08-19T07:24:47;97666.03;;;20.86;63.59
9187;BME280;7273;48.902;9.410;2022-08-19T07:27:14;97664.00;;;20.83;63.67
9187;BME280;7273;48.902;9.410;2022-08-19T07:29:39;97659.38;;;20.87;63.79
9187;BME280;7273;48.902;9.410;2022-08-19T07:32:05;97667.19;;;20.85;63.88
9187;BME280;7273;48.902;9.410;2022-08-19T07:34:31;97664.09;;;20.86;64.12
9187;BME280;7273;48.902;9.410;2022-08-19T07:37:04;97663.28;;;20.86;64.26
9187;BME280;7273;48.902;9.410;2022-08-19T07:39:32;97666.75;;;20.83;64.41
9187;BME280;7273;48.902;9.410;2022-08-19T07:41:59;97667.09;;;20.81;64.39
9187;BME280;7273;48.902;9.410;2022-08-19T07:44:26;97672.13;;;20.79;64.58
9187;BME280;7273;48.902;9.410;2022-08-19T07:46:54;97673.31;;;20.78;64.49
9187;BME280;7273;48.902;9.410;2022-08-19T07:49:21;97680.38;;;20.79;64.71
9187;BME280;7273;48.902;9.410;2022-08-19T07:51:52;97672.94;;;20.80;65.06
9187;BME280;7273;48.902;9.410;2022-08-19T07:54:20;97671.06;;;20.84;64.80
9187;BME280;7273;48.902;9.410;2022-08-19T07:56:46;97673.31;;;20.78;64.88
9187;BME280;7273;48.902;9.410;2022-08-19T07:59:11;97665.41;;;20.77;64.94
9187;BME280;7273;48.902;9.410;2022-08-19T08:01:37;97668.50;;;20.75;65.00
9187;BME280;7273;48.902;9.410;2022-08-19T08:04:06;97667.81;;;20.78;64.91
9187;BME280;7273;48.902;9.410;2022-08-19T08:06:50;97668.94;;;20.77;64.89
9187;BME280;7273;48.902;9.410;2022-08-19T08:09:37;97674.88;;;20.79;64.93
9187;BME280;7273;48.902;9.410;2022-08-19T08:14:50;97683.38;;;20.74;65.16
9187;BME280;7273;48.902;9.410;2022-08-19T08:17:19;97690.50;;;20.75;64.99
9187;BME280;7273;48.902;9.410;2022-08-19T08:19:46;97686.94;;;20.75;65.00
9187;BME280;7273;48.902;9.410;2022-08-19T08:22:15;97681.00;;;20.73;64.90
9187;BME280;7273;48.902;9.410;2022-08-19T08:25:12;97700.22;;;20.73;65.21
9187;BME280;7273;48.902;9.410;2022-08-19T08:27:39;97691.53;;;20.71;64.93
9187;BME280;7273;48.902;9.410;2022-08-19T08:30:11;97690.66;;;20.67;65.16
9187;BME280;7273;48.902;9.410;2022-08-19T08:32:38;97682.75;;;20.65;65.00
9187;BME280;7273;48.902;9.410;2022-08-19T08:35:06;97688.25;;;20.65;65.02
9187;BME280;7273;48.902;9.410;2022-08-19T08:37:32;97684.00;;;20.68;65.14
9187;BME280;7273;48.902;9.410;2022-08-19T08:39:57;97682.41;;;20.67;64.99
9187;BME280;7273;48.902;9.410;2022-08-19T08:42:36;97683.19;;;20.67;65.73
9187;BME280;7273;48.902;9.410;2022-08-19T08:45:12;97685.63;;;20.69;65.41
9187;BME280;7273;48.902;9.410;2022-08-19T08:47:41;97673.91;;;20.72;65.01
9187;BME280;7273;48.902;9.410;2022-08-19T08:50:21;97669.13;;;20.69;65.92
9187;BME280;7273;48.902;9.410;2022-08-19T08:52:53;97675.75;;;20.68;65.35
9187;BME280;7273;48.902;9.410;2022-08-19T08:55:25;97682.88;;;20.69;65.35
9187;BME280;7273;48.902;9.410;2022-08-19T08:57:59;97685.25;;;20.70;65.60
9187;BME280;7273;48.902;9.410;2022-08-19T09:00:32;97686.88;;;20.59;65.71
9187;BME280;7273;48.902;9.410;2022-08-19T09:02:59;97682.75;;;20.65;65.64
9187;BME280;7273;48.902;9.410;2022-08-19T09:06:06;97680.72;;;20.62;66.51
9187;BME280;7273;48.902;9.410;2022-08-19T09:11:25;97688.88;;;20.59;66.58
9187;BME280;7273;48.902;9.410;2022-08-19T09:14:32;97689.38;;;20.64;67.55
9187;BME280;7273;48.902;9.410;2022-08-19T09:16:58;97686.88;;;20.59;66.38
9187;BME280;7273;48.902;9.410;2022-08-19T09:19:25;97704.19;;;20.60;66.25
9187;BME280;7273;48.902;9.410;2022-08-19T09:21:50;97689.84;;;20.66;66.20
9187;BME280;7273;48.902;9.410;2022-08-19T09:24:16;97706.34;;;20.66;66.46
9187;BME280;7273;48.902;9.410;2022-08-19T09:26:41;97704.84;;;20.69;66.41
9187;BME280;7273;48.902;9.410;2022-08-19T09:29:09;97703.69;;;20.70;66.42
9187;BME280;7273;48.902;9.410;2022-08-19T09:31:35;97700.69;;;20.75;66.48
9187;BME280;7273;48.902;9.410;2022-08-19T09:34:02;97698.41;;;20.77;66.39
9187;BME280;7273;48.902;9.410;2022-08-19T09:36:30;97698.81;;;20.79;66.33
9187;BME280;7273;48.902;9.410;2022-08-19T09:38:58;97698.91;;;20.82;66.36
9187;BME280;7273;48.902;9.410;2022-08-19T09:41:25;97704.41;;;20.82;66.52
9187;BME280;7273;48.902;9.410;2022-08-19T09:43:52;97709.56;;;20.84;66.64
9187;BME280;7273;48.902;9.410;2022-08-19T09:46:19;97706.91;;;20.87;66.65
9187;BME280;7273;48.902;9.410;2022-08-19T09:48:46;97699.47;;;20.88;66.66
9187;BME280;7273;48.902;9.410;2022-08-19T09:51:15;97701.06;;;20.89;66.74
9187;BME280;7273;48.902;9.410;2022-08-19T09:53:42;97709.75;;;20.91;71.73
9187;BME280;7273;48.902;9.410;2022-08-19T09:56:08;97706.56;;;20.89;66.87
9187;BME280;7273;48.902;9.410;2022-08-19T09:58:34;97703.34;;;20.87;66.89
9187;BME280;7273;48.902;9.410;2022-08-19T10:01:01;97703.28;;;20.83;66.89
9187;BME280;7273;48.902;9.410;2022-08-19T10:03:29;97705.69;;;20.85;66.97
9187;BME280;7273;48.902;9.410;2022-08-19T10:05:56;97711.53;;;20.83;67.21
9187;BME280;7273;48.902;9.410;2022-08-19T10:08:27;97698.91;;;20.82;67.34
9187;BME280;7273;48.902;9.410;2022-08-19T10:10:54;97708.19;;;20.90;67.12
9187;BME280;7273;48.902;9.410;2022-08-19T10:13:22;97703.56;;;20.94;67.16
9187;BME280;7273;48.902;9.410;2022-08-19T10:15:50;97701.97;;;20.93;67.48
9187;BME280;7273;48.902;9.410;2022-08-19T10:18:17;97700.44;;;20.95;67.49
9187;BME280;7273;48.902;9.410;2022-08-19T10:20:44;97704.81;;;20.96;67.50
9187;BME280;7273;48.902;9.410;2022-08-19T10:23:11;97698.19;;;20.97;67.68
9187;BME280;7273;48.902;9.410;2022-08-19T10:25:36;97696.69;;;21.00;67.76
9187;BME280;7273;48.902;9.410;2022-08-19T10:28:03;97691.97;;;21.00;67.89
9187;BME280;7273;48.902;9.410;2022-08-19T10:30:31;97691.97;;;21.00;67.94
9187;BME280;7273;48.902;9.410;2022-08-19T10:32:57;97695.28;;;21.06;67.59
9187;BME280;7273;48.902;9.410;2022-08-19T10:35:22;97693.84;;;21.12;67.52
9187;BME280;7273;48.902;9.410;2022-08-19T10:37:51;97694.31;;;21.14;67.42
9187;BME280;7273;48.902;9.410;2022-08-19T10:40:17;97700.97;;;21.13;67.38
9187;BME280;7273;48.902;9.410;2022-08-19T10:42:42;97688.44;;;21.15;67.60
9187;BME280;7273;48.902;9.410;2022-08-19T10:45:09;97698.91;;;21.10;67.72
9187;BME280;7273;48.902;9.410;2022-08-19T10:47:35;97700.88;;;21.09;67.94
9187;BME280;7273;48.902;9.410;2022-08-19T10:50:02;97703.06;;;21.04;68.29
9187;BME280;7273;48.902;9.410;2022-08-19T10:52:48;97694.81;;;21.04;68.36
9187;BME280;7273;48.902;9.410;2022-08-19T10:55:14;97700.22;;;21.00;68.41
9187;BME280;7273;48.902;9.410;2022-08-19T10:57:57;97694.84;;;20.92;68.70
9187;BME280;7273;48.902;9.410;2022-08-19T11:00:24;97699.94;;;20.90;68.82
9187;BME280;7273;48.902;9.410;2022-08-19T11:02:51;97702.78;;;20.93;68.73
9187;BME280;7273;48.902;9.410;2022-08-19T11:05:17;97698.88;;;20.94;68.57
9187;BME280;7273;48.902;9.410;2022-08-19T11:07:43;97693.38;;;20.94;68.69
9187;BME280;7273;48.902;9.410;2022-08-19T11:10:11;97695.09;;;20.87;68.84
9187;BME280;7273;48.902;9.410;2022-08-19T11:12:38;97689.59;;;20.99;68.51
9187;BME280;7273;48.902;9.410;2022-08-19T11:15:06;97692.88;;;21.04;68.40
9187;BME280;7273;48.902;9.410;2022-08-19T11:17:32;97682.00;;;20.96;68.84
9187;BME280;7273;48.902;9.410;2022-08-19T11:19:58;97687.88;;;20.94;68.94
9187;BME280;7273;48.902;9.410;2022-08-19T11:22:27;97683.72;;;21.00;68.75
9187;BME280;7273;48.902;9.410;2022-08-19T11:24:52;97677.97;;;21.05;68.73
9187;BME280;7273;48.902;9.410;2022-08-19T11:27:17;97668.91;;;21.05;68.81
9187;BME280;7273;48.902;9.410;2022-08-19T11:29:43;97677.78;;;20.98;69.03
9187;BME280;7273;48.902;9.410;2022-08-19T11:32:10;97684.22;;;20.90;69.32
9187;BME280;7273;48.902;9.410;2022-08-19T11:34:37;97679.31;;;20.84;69.44
9187;BME280;7273;48.902;9.410;2022-08-19T11:37:02;97691.94;;;20.85;69.54
9187;BME280;7273;48.902;9.410;2022-08-19T11:39:30;97681.28;;;20.83;69.58
9187;BME280;7273;48.902;9.410;2022-08-19T11:41:58;97681.72;;;20.85;69.60
9187;BME280;7273;48.902;9.410;2022-08-19T11:44:23;97688.22;;;20.93;69.36
9187;BME280;7273;48.902;9.410;2022-08-19T11:46:49;97680.97;;;21.00;69.13
9187;BME280;7273;48.902;9.410;2022-08-19T11:49:16;97681.53;;;21.06;69.17
9187;BME280;7273;48.902;9.410;2022-08-19T11:51:44;97684.66;;;20.92;69.62
9187;BME280;7273;48.902;9.410;2022-08-19T11:54:10;97685.84;;;20.91;69.89
9187;BME280;7273;48.902;9.410;2022-08-19T11:56:37;97685.63;;;20.84;70.23
9187;BME280;7273;48.902;9.410;2022-08-19T11:59:03;97689.91;;;20.82;70.27
9187;BME280;7273;48.902;9.410;2022-08-19T12:01:29;97683.25;;;20.83;70.11
9187;BME280;7273;48.902;9.410;2022-08-19T12:03:56;97681.38;;;20.87;70.08
9187;BME280;7273;48.902;9.410;2022-08-19T12:06:28;97680.69;;;20.90;70.68
9187;BME280;7273;48.902;9.410;2022-08-19T12:08:58;97680.06;;;20.96;70.50
9187;BME280;7273;48.902;9.410;2022-08-19T12:11:25;97683.38;;;21.02;70.18
9187;BME280;7273;48.902;9.410;2022-08-19T12:13:52;97684.19;;;21.02;70.33
9187;BME280;7273;48.902;9.410;2022-08-19T12:16:21;97680.81;;;21.09;70.17
9187;BME280;7273;48.902;9.410;2022-08-19T12:18:48;97676.47;;;21.08;70.20
9187;BME280;7273;48.902;9.410;2022-08-19T12:21:19;97685.00;;;21.18;70.47
9187;BME280;7273;48.902;9.410;2022-08-19T12:23:47;97684.28;;;21.21;70.28
9187;BME280;7273;48.902;9.410;2022-08-19T12:26:13;97684.72;;;21.23;70.31
9187;BME280;7273;48.902;9.410;2022-08-19T12:28:39;97687.47;;;21.23;70.28
9187;BME280;7273;48.902;9.410;2022-08-19T12:31:05;97681.97;;;21.23;70.47
9187;BME280;7273;48.902;9.410;2022-08-19T12:33:30;97694.25;;;21.26;70.39
9187;BME280;7273;48.902;9.410;2022-08-19T12:36:00;97694.75;;;21.31;70.40
9187;BME280;7273;48.902;9.410;2022-08-19T12:38:26;97689.59;;;21.30;70.47
9187;BME280;7273;48.902;9.410;2022-08-19T12:40:52;97688.03;;;21.29;70.63
9187;BME280;7273;48.902;9.410;2022-08-19T12:43:17;97686.59;;;21.35;70.56
9187;BME280;7273;48.902;9.410;2022-08-19T12:45:44;97692.28;;;21.42;70.50
9187;BME280;7273;48.902;9.410;2022-08-19T12:48:11;97686.69;;;21.39;70.70
9187;BME280;7273;48.902;9.410;2022-08-19T12:50:40;97691.13;;;21.43;70.92
9187;BME280;7273;48.902;9.410;2022-08-19T12:53:05;97686.94;;;21.49;70.46
9187;BME280;7273;48.902;9.410;2022-08-19T12:55:31;97694.22;;;21.57;70.45
9187;BME280;7273;48.902;9.410;2022-08-19T12:57:56;97695.38;;;21.56;70.56
9187;BME280;7273;48.902;9.410;2022-08-19T13:00:22;97704.88;;;21.59;70.58
9187;BME280;7273;48.902;9.410;2022-08-19T13:02:50;97700.50;;;21.58;70.59
9187;BME280;7273;48.902;9.410;2022-08-19T13:05:19;97698.28;;;21.63;70.58
9187;BME280;7273;48.902;9.410;2022-08-19T13:07:47;97694.22;;;21.57;70.65
9187;BME280;7273;48.902;9.410;2022-08-19T13:10:15;97694.66;;;21.59;70.74
9187;BME280;7273;48.902;9.410;2022-08-19T13:12:42;97700.88;;;21.72;70.22
9187;BME280;7273;48.902;9.410;2022-08-19T13:15:08;97698.13;;;21.72;70.33
9187;BME280;7273;48.902;9.410;2022-08-19T13:17:34;97706.56;;;21.63;70.60
9187;BME280;7273;48.902;9.410;2022-08-19T13:20:00;97705.84;;;21.66;70.48
9187;BME280;7273;48.902;9.410;2022-08-19T13:22:26;97699.78;;;21.61;70.73
9187;BME280;7273;48.902;9.410;2022-08-19T13:24:52;97703.34;;;21.61;70.78
9187;BME280;7273;48.902;9.410;2022-08-19T13:27:18;97700.69;;;21.65;70.78
9187;BME280;7273;48.902;9.410;2022-08-19T13:29:43;97705.13;;;21.69;70.81
9187;BME280;7273;48.902;9.410;2022-08-19T13:32:29;97707.41;;;21.67;70.76